Time;durP1;ratioP1;P1;durP2;ratioP2;P2;SDS_P1;SDS_P2;PMS_P1;PMS_P2;Temp;Humidity;BMP_temperature;BMP_pressure;BME280_temperature;BME280_humidity;BME280_pressure;Samples;Min_cycle;Max_cycle;Signal;HPM_P1;HPM_P2
2024/01/23 00:01:33;;;;;;;13.80;6.60;;;;;;;4.35;71.41;102059.72;107400;1286;1002308;-62
2024/01/23 00:04:02;;;;;;;9.30;5.80;;;;;;;4.37;71.44;102059.27;108209;1280;21983;-61
2024/01/23 00:06:28;;;;;;;15.20;7.00;;;;;;;4.38;71.36;102054.45;108177;1277;22005;-60
2024/01/23 00:08:53;;;;;;;10.90;5.90;;;;;;;4.40;71.17;102052.44;108172;1284;21977;-61
2024/01/23 00:11:19;;;;;;;13.80;6.80;;;;;;;4.41;71.01;102051.92;108202;1276;22004;-61
2024/01/23 00:13:49;;;;;;;11.60;6.70;;;;;;;4.44;71.17;102051.01;108086;1283;21992;-61
2024/01/23 00:16:14;;;;;;;14.10;6.90;;;;;;;4.43;71.02;102050.45;108118;1280;21983;-61
2024/01/23 00:18:40;;;;;;;12.10;7.00;;;;;;;4.44;70.79;102042.49;108061;1280;21989;-60
2024/01/23 00:21:06;;;;;;;13.10;6.40;;;;;;;4.48;70.71;102040.41;107345;1281;1002623;-60
2024/01/23 00:23:31;;;;;;;13.10;6.70;;;;;;;4.52;70.86;102036.73;107377;1283;1002312;-61
2024/01/23 00:25:57;;;;;;;13.50;6.90;;;;;;;4.55;70.96;102037.19;107337;1277;1002187;-60
2024/01/23 00:28:22;;;;;;;12.50;6.60;;;;;;;4.55;70.89;102036.86;108144;1277;21989;-60
2024/01/23 00:30:48;;;;;;;10.30;6.50;;;;;;;4.60;70.92;102032.02;108074;1286;21991;-59
2024/01/23 00:33:13;;;;;;;10.20;6.10;;;;;;;4.61;70.82;102028.56;108186;1286;21987;-60
2024/01/23 00:35:40;;;;;;;13.20;7.10;;;;;;;4.60;70.80;102023.16;108091;1276;22026;-60
2024/01/23 00:38:06;;;;;;;12.00;6.80;;;;;;;4.59;70.75;102018.05;108087;1286;22024;-60
2024/01/23 00:40:32;;;;;;;16.00;6.80;;;;;;;4.61;70.88;102017.10;108146;1277;22019;-61
2024/01/23 00:42:57;;;;;;;12.00;6.30;;;;;;;4.64;71.29;102013.04;108095;1286;22016;-62
2024/01/23 00:45:23;;;;;;;15.80;7.70;;;;;;;4.66;71.08;102013.61;108114;1286;22452;-61
2024/01/23 00:47:48;;;;;;;11.70;6.80;;;;;;;4.70;70.98;102007.33;108079;1286;21990;-61
2024/01/23 00:50:14;;;;;;;10.90;6.00;;;;;;;4.72;71.09;102006.36;108078;1286;22037;-61
2024/01/23 00:52:40;;;;;;;13.40;5.80;;;;;;;4.74;70.96;102004.35;108110;1286;21997;-59
2024/01/23 00:55:06;;;;;;;9.40;6.10;;;;;;;4.73;70.48;101999.11;108083;1276;21996;-62
2024/01/23 00:57:32;;;;;;;10.50;6.10;;;;;;;4.72;70.66;101995.60;108081;1281;21977;-62
2024/01/23 00:59:58;;;;;;;11.10;6.20;;;;;;;4.73;70.71;101991.61;108100;1277;22010;-60
2024/01/23 01:02:23;;;;;;;11.10;6.20;;;;;;;4.74;70.65;101983.33;108202;1274;21989;-62
2024/01/23 01:04:49;;;;;;;11.90;6.20;;;;;;;4.73;70.67;101978.08;108062;1277;21981;-60
2024/01/23 01:07:14;;;;;;;11.30;5.20;;;;;;;4.70;70.29;101978.98;108237;1286;21991;-62
2024/01/23 01:09:40;;;;;;;13.70;6.10;;;;;;;4.68;70.30;101978.76;108165;1280;22936;-60
2024/01/23 01:12:06;;;;;;;11.00;6.30;;;;;;;4.71;70.35;101976.25;108226;1280;21988;-62
2024/01/23 01:14:34;;;;;;;15.70;6.60;;;;;;;4.72;70.35;101972.80;108234;1275;22026;-61
2024/01/23 01:17:00;;;;;;;11.20;5.50;;;;;;;4.74;70.43;101970.78;108124;1286;21980;-61
2024/01/23 01:19:25;;;;;;;11.20;5.70;;;;;;;4.75;70.70;101969.09;107449;1277;1002671;-61
2024/01/23 01:21:51;;;;;;;10.00;6.30;;;;;;;4.75;70.64;101969.96;107361;1280;1002485;-61
2024/01/23 01:24:17;;;;;;;11.00;6.30;;;;;;;4.73;70.47;101968.84;108177;1286;21985;-60
2024/01/23 01:26:43;;;;;;;10.60;6.20;;;;;;;4.70;70.36;101966.13;108101;1285;21981;-61
2024/01/23 01:29:08;;;;;;;13.50;6.60;;;;;;;4.65;70.38;101966.11;108094;1286;22011;-62
2024/01/23 01:31:34;;;;;;;11.30;6.40;;;;;;;4.57;71.01;101967.39;108139;1286;21992;-59
2024/01/23 01:34:02;;;;;;;9.40;5.70;;;;;;;4.55;71.47;101961.23;108108;1275;21990;-60
2024/01/23 01:36:28;;;;;;;11.60;6.50;;;;;;;4.55;71.93;101955.30;108155;1286;21987;-59
2024/01/23 01:38:56;;;;;;;10.50;5.70;;;;;;;4.53;71.90;101957.30;108051;1277;21989;-60
2024/01/23 01:41:22;;;;;;;13.20;7.20;;;;;;;4.53;71.77;101955.21;108116;1286;21995;-58
2024/01/23 01:43:47;;;;;;;11.90;6.40;;;;;;;4.52;72.01;101952.77;108073;1284;22008;-60
2024/01/23 01:46:23;;;;;;;10.00;6.00;;;;;;;4.55;71.93;101947.68;108135;1286;21989;-59
2024/01/23 01:48:49;;;;;;;10.70;6.20;;;;;;;4.56;72.04;101948.21;108097;1286;22001;-60
2024/01/23 01:51:15;;;;;;;11.80;6.40;;;;;;;4.57;71.98;101943.40;108120;1286;22021;-62
2024/01/23 01:53:42;;;;;;;12.40;6.20;;;;;;;4.57;71.87;101938.17;108150;1286;22039;-61
2024/01/23 01:56:08;;;;;;;9.00;5.30;;;;;;;4.58;71.91;101936.66;108107;1277;22030;-59
2024/01/23 01:58:33;;;;;;;10.00;5.10;;;;;;;4.63;71.76;101937.33;108122;1286;22026;-59
2024/01/23 02:01:02;;;;;;;9.50;5.40;;;;;;;4.64;71.52;101930.92;108125;1286;21997;-59
2024/01/23 02:03:28;;;;;;;10.50;5.10;;;;;;;4.64;71.60;101926.77;108136;1286;21988;-60
2024/01/23 02:05:54;;;;;;;11.40;6.30;;;;;;;4.64;71.54;101923.46;108122;1286;21991;-61
2024/01/23 02:08:19;;;;;;;9.10;5.50;;;;;;;4.61;71.51;101924.93;108275;1286;22385;-61
2024/01/23 02:10:45;;;;;;;9.00;6.10;;;;;;;4.58;71.53;101920.66;108169;1286;21995;-61
2024/01/23 02:13:11;;;;;;;11.50;5.90;;;;;;;4.57;71.38;101915.05;108123;1280;22004;-59
2024/01/23 02:15:36;;;;;;;10.00;5.40;;;;;;;4.55;71.61;101917.23;108074;1284;21987;-59
2024/01/23 02:18:02;;;;;;;9.90;5.10;;;;;;;4.53;71.47;101920.81;108105;1287;22003;-59
2024/01/23 02:20:28;;;;;;;12.20;6.20;;;;;;;4.51;71.53;101920.55;108133;1283;22024;-61
2024/01/23 02:22:54;;;;;;;11.00;6.20;;;;;;;4.54;71.36;101917.38;107979;1287;21993;-58
2024/01/23 02:25:20;;;;;;;10.10;6.20;;;;;;;4.54;71.30;101915.11;108136;1286;21986;-60
2024/01/23 02:27:45;;;;;;;10.80;6.70;;;;;;;4.52;71.44;101913.84;108144;1287;22045;-60
2024/01/23 02:30:12;;;;;;;10.30;5.70;;;;;;;4.49;71.23;101914.93;108122;1287;21991;-61
2024/01/23 02:32:45;;;;;;;10.10;5.60;;;;;;;4.43;71.18;101912.11;108090;1286;21992;-61
2024/01/23 02:35:10;;;;;;;9.60;6.10;;;;;;;4.42;71.47;101910.14;108096;1287;22100;-61
2024/01/23 02:37:36;;;;;;;12.00;6.50;;;;;;;4.40;71.46;101909.55;108160;1276;22025;-59
2024/01/23 02:40:03;;;;;;;10.90;6.60;;;;;;;4.39;71.61;101907.79;108281;1287;22046;-59
2024/01/23 02:42:29;;;;;;;12.10;6.70;;;;;;;4.38;71.60;101906.69;108233;1287;21993;-58
2024/01/23 02:44:54;;;;;;;10.30;6.70;;;;;;;4.33;71.63;101899.73;108090;1274;21998;-58
2024/01/23 02:47:20;;;;;;;13.60;6.30;;;;;;;4.30;71.79;101900.99;107382;1277;1002596;-60
2024/01/23 02:49:46;;;;;;;12.50;5.90;;;;;;;4.30;71.42;101906.38;108135;1287;22117;-61
2024/01/23 02:52:12;;;;;;;9.50;6.10;;;;;;;4.28;71.56;101906.69;108255;1281;21995;-61
2024/01/23 02:54:38;;;;;;;11.10;6.50;;;;;;;4.28;71.78;101899.73;108242;1277;21997;-59
2024/01/23 02:57:03;;;;;;;11.50;6.70;;;;;;;4.27;71.44;101900.20;108199;1277;22092;-59
2024/01/23 02:59:29;;;;;;;13.10;7.30;;;;;;;4.28;71.78;101895.90;108102;1277;22455;-60
2024/01/23 03:01:55;;;;;;;12.90;7.00;;;;;;;4.29;72.05;101895.77;108073;1280;22122;-59
2024/01/23 03:04:20;;;;;;;13.20;6.60;;;;;;;4.31;72.37;101896.71;108070;1280;22019;-59
2024/01/23 03:06:46;;;;;;;12.70;6.00;;;;;;;4.38;72.59;101899.59;108096;1277;22103;-60
2024/01/23 03:09:13;;;;;;;9.80;5.80;;;;;;;4.44;72.38;101894.23;108119;1277;21983;-61
2024/01/23 03:11:39;;;;;;;11.10;5.70;;;;;;;4.51;72.74;101891.17;108224;1286;21992;-60
2024/01/23 03:14:05;;;;;;;11.40;6.60;;;;;;;4.59;72.60;101890.08;108147;1275;21989;-60
2024/01/23 03:16:31;;;;;;;9.70;5.70;;;;;;;4.65;72.60;101885.06;108125;1286;21985;-59
2024/01/23 03:18:56;;;;;;;12.50;6.10;;;;;;;4.71;72.75;101881.81;108097;1277;22043;-61
2024/01/23 03:21:22;;;;;;;11.20;6.30;;;;;;;4.75;72.50;101874.33;107355;1277;1002861;-60
2024/01/23 03:23:48;;;;;;;10.60;6.10;;;;;;;4.83;72.58;101871.13;107421;1284;1003193;-61
2024/01/23 03:26:13;;;;;;;9.70;5.60;;;;;;;4.87;72.26;101868.30;107534;1277;1002316;-60
2024/01/23 03:28:39;;;;;;;10.20;5.50;;;;;;;4.90;72.03;101868.40;107369;1274;1002389;-59
2024/01/23 03:31:04;;;;;;;11.00;5.70;;;;;;;4.92;71.76;101867.94;107365;1286;1003634;-61
2024/01/23 03:33:30;;;;;;;7.80;4.80;;;;;;;4.93;72.03;101867.10;107382;1286;1002809;-60
2024/01/23 03:35:56;;;;;;;10.70;5.20;;;;;;;4.95;72.12;101865.42;108212;1286;21981;-62
2024/01/23 03:38:21;;;;;;;8.90;4.80;;;;;;;4.95;71.90;101860.40;108131;1282;22058;-59
2024/01/23 03:40:47;;;;;;;6.40;4.10;;;;;;;4.95;71.71;101860.21;108132;1286;21990;-61
2024/01/23 03:43:12;;;;;;;6.70;3.80;;;;;;;4.94;71.92;101857.42;108211;1277;21988;-58
2024/01/23 03:45:38;;;;;;;9.30;5.00;;;;;;;4.93;71.93;101852.66;108145;1280;22035;-59
2024/01/23 03:48:04;;;;;;;8.80;5.30;;;;;;;4.95;71.85;101856.90;107425;1286;1003573;-60
2024/01/23 03:50:30;;;;;;;7.80;4.80;;;;;;;4.96;71.78;101860.57;108093;1286;21994;-61
2024/01/23 03:52:56;;;;;;;9.90;4.80;;;;;;;4.95;71.65;101858.11;108122;1286;21994;-59
2024/01/23 03:55:21;;;;;;;8.10;5.30;;;;;;;4.91;71.57;101858.18;107360;1286;1002269;-60
2024/01/23 03:57:47;;;;;;;7.80;4.80;;;;;;;4.87;71.43;101860.81;108121;1277;22040;-61
2024/01/23 04:00:14;;;;;;;10.00;4.90;;;;;;;4.82;71.38;101856.28;108118;1280;21988;-59
2024/01/23 04:02:41;;;;;;;10.00;5.40;;;;;;;4.77;71.47;101853.52;108130;1286;21990;-59
2024/01/23 04:05:07;;;;;;;12.10;7.10;;;;;;;4.72;71.79;101850.20;108114;1286;21986;-59
2024/01/23 04:07:33;;;;;;;13.00;6.60;;;;;;;4.68;72.36;101850.58;108108;1286;21992;-62
2024/01/23 04:10:00;;;;;;;12.60;7.90;;;;;;;4.65;73.06;101850.31;108154;1277;21987;-61
2024/01/23 04:12:26;;;;;;;16.20;8.30;;;;;;;4.62;74.17;101850.05;108132;1275;21994;-61
2024/01/23 04:14:51;;;;;;;15.50;8.70;;;;;;;4.62;74.56;101853.69;108071;1276;21989;-59
2024/01/23 04:17:17;;;;;;;14.00;8.50;;;;;;;4.62;75.12;101855.60;108060;1286;21988;-59
2024/01/23 04:19:43;;;;;;;12.30;7.60;;;;;;;4.62;75.87;101855.59;108080;1286;22468;-59
2024/01/23 04:22:09;;;;;;;12.80;7.30;;;;;;;4.63;76.53;101856.16;108085;1286;21981;-60
2024/01/23 04:24:37;;;;;;;13.80;8.30;;;;;;;4.66;76.52;101860.23;108154;1282;22202;-58
2024/01/23 04:27:07;;;;;;;14.10;7.90;;;;;;;4.68;76.59;101862.95;108221;1287;21989;-61
2024/01/23 04:29:33;;;;;;;;;;;;;;;4.71;77.37;101858.52;108168;1284;21973;-60
2024/01/23 04:31:59;;;;;;;13.40;7.90;;;;;;;4.76;77.80;101860.98;108111;1287;21998;-60
2024/01/23 04:34:24;;;;;;;11.60;7.60;;;;;;;4.81;78.79;101861.13;107385;1274;1002871;-61
2024/01/23 04:36:50;;;;;;;13.00;7.90;;;;;;;4.85;79.57;101858.32;108305;1283;21986;-61
2024/01/23 04:39:16;;;;;;;15.40;8.30;;;;;;;4.88;81.73;101858.06;108254;1286;22001;-60
2024/01/23 04:41:42;;;;;;;14.00;8.20;;;;;;;4.95;81.75;101856.39;107341;1286;1006092;-61
2024/01/23 04:44:08;;;;;;;16.30;8.60;;;;;;;5.00;82.70;101853.79;108078;1286;22241;-59
2024/01/23 04:46:33;;;;;;;15.10;8.20;;;;;;;5.08;82.63;101854.39;107335;1284;1002553;-59
2024/01/23 04:48:59;;;;;;;15.90;7.90;;;;;;;5.14;83.16;101854.06;107310;1280;1002298;-59
2024/01/23 04:51:24;;;;;;;10.70;7.00;;;;;;;5.16;84.05;101850.84;108081;1283;22459;-62
2024/01/23 04:53:52;;;;;;;13.90;7.90;;;;;;;5.20;84.52;101843.66;108134;1281;21987;-58
2024/01/23 04:56:18;;;;;;;11.40;7.50;;;;;;;5.23;84.42;101841.85;108038;1286;21993;-59
2024/01/23 04:58:44;;;;;;;13.90;7.50;;;;;;;5.24;84.91;101838.23;108359;1286;21992;-60
2024/01/23 05:01:09;;;;;;;11.50;7.30;;;;;;;5.26;85.32;101827.86;108121;1286;22018;-59
2024/01/23 05:03:35;;;;;;;11.00;6.90;;;;;;;5.27;85.33;101828.06;108082;1286;22156;-59
2024/01/23 05:06:01;;;;;;;13.00;7.60;;;;;;;5.27;85.70;101821.09;108075;1284;21982;-59
2024/01/23 05:08:26;;;;;;;13.50;7.40;;;;;;;5.28;85.26;101816.77;108086;1281;22105;-60
2024/01/23 05:10:52;;;;;;;11.50;7.50;;;;;;;5.26;85.43;101816.19;108166;1286;22157;-59
2024/01/23 05:13:18;;;;;;;18.70;8.50;;;;;;;5.25;85.32;101817.89;108210;1286;22082;-59
2024/01/23 05:15:44;;;;;;;14.40;8.50;;;;;;;5.24;85.81;101814.73;108258;1274;21999;-58
2024/01/23 05:18:11;;;;;;;13.70;7.60;;;;;;;5.23;85.66;101813.13;108234;1277;21995;-62
2024/01/23 05:20:37;;;;;;;12.90;7.50;;;;;;;5.24;85.44;101811.95;107344;1286;1003088;-61
2024/01/23 05:23:06;;;;;;;10.50;7.70;;;;;;;5.24;84.99;101812.98;108083;1281;22660;-61
2024/01/23 05:25:31;;;;;;;12.90;7.70;;;;;;;5.23;84.96;101813.84;108152;1274;21995;-61
2024/01/23 05:27:57;;;;;;;11.30;7.50;;;;;;;5.23;85.31;101807.74;108087;1280;21992;-61
2024/01/23 05:30:23;;;;;;;15.30;7.80;;;;;;;5.25;85.53;101807.64;108192;1276;21988;-60
2024/01/23 05:32:51;;;;;;;13.70;7.40;;;;;;;5.28;86.23;101811.90;108129;1277;22021;-61
2024/01/23 05:35:17;;;;;;;12.00;7.70;;;;;;;5.29;86.40;101813.17;108135;1280;22004;-60
2024/01/23 05:37:43;;;;;;;15.10;7.60;;;;;;;5.32;86.47;101811.67;108067;1286;22027;-61
2024/01/23 05:40:12;;;;;;;12.30;7.60;;;;;;;5.31;86.66;101806.07;108141;1277;21986;-61
2024/01/23 05:42:38;;;;;;;12.70;7.00;;;;;;;5.32;86.73;101806.98;108173;1280;21992;-61
2024/01/23 05:45:05;;;;;;;9.10;6.70;;;;;;;5.34;86.58;101803.56;108125;1278;21985;-61
2024/01/23 05:47:33;;;;;;;10.20;6.80;;;;;;;5.36;86.61;101795.95;108177;1280;22054;-62
2024/01/23 05:49:59;;;;;;;11.90;7.10;;;;;;;5.37;86.63;101794.09;108214;1286;21995;-62
2024/01/23 05:52:25;;;;;;;11.80;7.80;;;;;;;5.37;87.02;101793.38;108121;1277;21992;-59
2024/01/23 05:54:51;;;;;;;14.60;8.30;;;;;;;5.36;87.36;101791.10;108145;1286;22000;-63
2024/01/23 05:57:17;;;;;;;10.90;7.40;;;;;;;5.39;87.04;101789.63;108185;1280;22453;-61
2024/01/23 05:59:42;;;;;;;10.90;7.40;;;;;;;5.42;86.63;101793.02;108163;1277;21987;-62
2024/01/23 06:02:08;;;;;;;11.70;7.20;;;;;;;5.42;86.75;101794.05;108226;1277;21989;-62
2024/01/23 06:04:35;;;;;;;10.90;7.00;;;;;;;5.43;86.58;101797.24;107998;1282;21987;-61
2024/01/23 06:07:00;;;;;;;14.60;6.90;;;;;;;5.43;87.25;101798.79;108140;1286;21991;-58
2024/01/23 06:09:29;;;;;;;11.00;7.30;;;;;;;5.47;87.05;101798.39;108137;1286;21995;-59
2024/01/23 06:11:55;;;;;;;14.60;7.60;;;;;;;5.47;87.62;101797.88;108099;1283;21988;-61
2024/01/23 06:14:20;;;;;;;13.90;7.60;;;;;;;5.50;87.84;101793.29;108135;1283;21994;-58
2024/01/23 06:16:46;;;;;;;13.00;7.10;;;;;;;5.56;87.50;101798.67;108098;1286;21985;-61
2024/01/23 06:19:14;;;;;;;10.70;7.10;;;;;;;5.61;87.21;101796.41;108069;1282;23750;-59
2024/01/23 06:21:40;;;;;;;12.00;7.20;;;;;;;5.65;87.18;101798.63;108174;1280;21984;-61
2024/01/23 06:24:05;;;;;;;14.40;8.30;;;;;;;5.71;86.75;101800.52;108269;1286;22014;-59
2024/01/23 06:26:32;;;;;;;11.40;7.40;;;;;;;5.75;86.65;101801.68;107439;1286;1002377;-60
2024/01/23 06:28:58;;;;;;;13.60;6.70;;;;;;;5.77;86.86;101797.23;108381;1286;21982;-58
2024/01/23 06:31:27;;;;;;;11.10;7.00;;;;;;;5.78;87.18;101795.52;108295;1283;21996;-61
2024/01/23 06:33:53;;;;;;;14.70;7.90;;;;;;;5.79;87.53;101796.92;108103;1280;22058;-61
2024/01/23 06:36:19;;;;;;;14.30;6.80;;;;;;;5.80;87.80;101797.15;108098;1274;21996;-61
2024/01/23 06:38:45;;;;;;;17.40;8.90;;;;;;;5.84;88.00;101796.73;108105;1283;21995;-58
2024/01/23 06:41:10;;;;;;;11.00;7.10;;;;;;;5.88;87.60;101798.94;108127;1284;22034;-58
2024/01/23 06:43:36;;;;;;;12.70;8.00;;;;;;;5.89;88.22;101803.50;108063;1287;21987;-59
2024/01/23 06:46:02;;;;;;;12.00;7.20;;;;;;;5.92;88.34;101799.27;108072;1288;21990;-61
2024/01/23 06:48:31;;;;;;;14.30;8.10;;;;;;;5.99;87.78;101794.90;107359;1283;1002552;-59
2024/01/23 06:50:57;;;;;;;11.80;7.40;;;;;;;6.01;87.86;101792.55;108081;1283;21995;-60
2024/01/23 06:53:22;;;;;;;14.20;7.20;;;;;;;6.02;88.91;101789.79;108130;1288;21990;-60
2024/01/23 06:55:48;;;;;;;14.50;7.80;;;;;;;6.08;88.91;101791.37;108167;1286;21997;-62
2024/01/23 06:58:13;;;;;;;11.00;6.60;;;;;;;6.16;88.31;101792.98;108120;1288;21996;-60
2024/01/23 07:00:39;;;;;;;14.80;8.30;;;;;;;6.20;88.21;101794.68;108102;1282;22007;-59
2024/01/23 07:03:08;;;;;;;12.20;7.20;;;;;;;6.25;88.57;101792.89;108072;1281;22002;-59
2024/01/23 07:05:35;;;;;;;14.10;7.20;;;;;;;6.28;89.10;101787.59;108156;1277;21988;-60
2024/01/23 07:08:02;;;;;;;12.70;7.90;;;;;;;6.35;89.05;101783.05;108157;1287;22000;-60
2024/01/23 07:10:29;;;;;;;17.20;8.40;;;;;;;6.38;89.05;101788.21;108140;1288;21990;-60
2024/01/23 07:12:55;;;;;;;17.40;8.80;;;;;;;6.42;89.67;101785.52;108174;1288;22463;-61
2024/01/23 07:15:21;;;;;;;16.30;8.80;;;;;;;6.47;89.81;101781.63;108091;1281;21981;-59
2024/01/23 07:17:47;;;;;;;13.50;7.60;;;;;;;6.53;89.67;101780.58;108131;1286;21995;-60
2024/01/23 07:20:13;;;;;;;14.80;8.40;;;;;;;6.59;89.53;101780.20;108102;1275;21998;-59
2024/01/23 07:22:38;;;;;;;14.70;8.50;;;;;;;6.64;89.96;101778.79;108074;1288;22071;-60
2024/01/23 07:25:04;;;;;;;16.90;8.80;;;;;;;6.70;89.72;101775.28;108008;1279;21993;-59
2024/01/23 07:27:31;;;;;;;14.10;7.70;;;;;;;6.78;89.83;101777.41;108136;1276;22005;-60
2024/01/23 07:29:56;;;;;;;15.10;8.20;;;;;;;6.84;89.86;101774.58;108079;1286;21998;-58
2024/01/23 07:32:22;;;;;;;13.60;8.00;;;;;;;6.87;89.76;101778.14;108093;1287;21989;-60
2024/01/23 07:34:47;;;;;;;14.80;7.70;;;;;;;6.91;89.66;101772.13;108094;1276;21995;-60
2024/01/23 07:37:13;;;;;;;12.20;7.40;;;;;;;6.96;89.40;101773.85;108105;1283;21996;-58
2024/01/23 07:39:39;;;;;;;14.20;7.50;;;;;;;6.98;89.43;101772.31;108085;1283;21994;-60
2024/01/23 07:42:06;;;;;;;13.70;7.60;;;;;;;7.00;89.80;101770.27;108102;1275;22225;-60
2024/01/23 07:44:39;;;;;;;14.00;6.70;;;;;;;7.04;89.57;101771.08;108034;1288;131667;-61
2024/01/23 07:47:05;;;;;;;13.90;7.90;;;;;;;7.10;89.64;101769.11;108144;1280;23727;-61
2024/01/23 07:49:31;;;;;;;12.00;7.70;;;;;;;7.16;89.50;101771.17;108120;1288;21990;-60
2024/01/23 07:51:57;;;;;;;16.70;8.30;;;;;;;7.22;89.65;101772.71;108113;1283;21992;-60
2024/01/23 07:54:23;;;;;;;14.30;7.70;;;;;;;7.28;89.46;101776.35;108193;1281;22002;-58
2024/01/23 07:56:50;;;;;;;13.70;7.80;;;;;;;7.35;89.71;101777.20;108145;1280;21995;-59
2024/01/23 07:59:16;;;;;;;12.30;8.20;;;;;;;7.41;89.78;101769.85;108145;1283;21989;-62
2024/01/23 08:01:42;;;;;;;12.70;7.60;;;;;;;7.49;90.06;101771.59;108172;1288;21995;-58
2024/01/23 08:04:08;;;;;;;17.30;8.00;;;;;;;7.60;90.06;101772.35;108163;1288;22938;-58
2024/01/23 08:06:34;;;;;;;16.30;8.40;;;;;;;7.67;90.06;101767.62;108140;1288;21996;-61
2024/01/23 08:08:59;;;;;;;18.20;8.30;;;;;;;7.70;89.80;101768.92;107965;1288;21988;-59
2024/01/23 08:11:25;;;;;;;19.90;8.20;;;;;;;7.71;89.60;101768.06;108165;1288;21990;-60
2024/01/23 08:13:51;;;;;;;17.60;7.70;;;;;;;7.73;89.46;101768.81;108077;1288;22002;-59
2024/01/23 08:16:17;;;;;;;18.30;7.80;;;;;;;7.83;89.89;101770.59;108102;1288;23734;-60
2024/01/23 08:18:42;;;;;;;21.10;8.70;;;;;;;7.97;90.91;101767.57;108105;1288;23605;-60
2024/01/23 08:21:09;;;;;;;14.70;7.10;;;;;;;8.14;91.20;101765.98;108099;1288;23663;-61
2024/01/23 08:23:36;;;;;;;12.80;5.20;;;;;;;8.30;90.40;101765.95;107952;1288;23777;-60
2024/01/23 08:26:03;;;;;;;12.60;4.90;;;;;;;8.47;89.23;101766.45;108169;1285;22648;-61
2024/01/23 08:28:29;;;;;;;8.10;4.10;;;;;;;8.56;87.97;101759.29;108114;1288;22213;-59
2024/01/23 08:30:55;;;;;;;12.10;5.40;;;;;;;8.62;87.38;101756.07;108094;1286;21993;-59
2024/01/23 08:33:22;;;;;;;10.00;5.20;;;;;;;8.70;87.32;101751.65;108118;1277;22006;-59
2024/01/23 08:35:48;;;;;;;7.50;4.50;;;;;;;8.74;86.39;101748.93;108124;1276;22030;-60
2024/01/23 08:38:13;;;;;;;9.10;4.10;;;;;;;8.79;86.09;101745.52;108096;1288;21992;-59
2024/01/23 08:40:40;;;;;;;14.10;4.30;;;;;;;8.91;86.66;101744.84;108121;1288;21992;-62
2024/01/23 08:43:05;;;;;;;6.40;4.20;;;;;;;9.07;87.32;101748.07;108109;1280;22002;-59
2024/01/23 08:45:31;;;;;;;6.70;3.80;;;;;;;9.21;87.58;101746.18;108080;1288;21999;-59
2024/01/23 08:47:57;;;;;;;8.60;4.00;;;;;;;9.41;87.51;101742.45;108112;1277;21990;-61
2024/01/23 08:50:23;;;;;;;10.00;3.90;;;;;;;9.60;87.03;101739.21;108128;1288;21990;-61
2024/01/23 08:52:49;;;;;;;8.00;4.00;;;;;;;9.74;86.11;101734.65;107356;1285;1002495;-60
2024/01/23 08:55:16;;;;;;;6.70;3.70;;;;;;;9.88;85.63;101732.55;108155;1288;21995;-59
2024/01/23 08:57:46;;;;;;;9.40;3.80;;;;;;;9.98;84.33;101730.56;108119;1288;21993;-60
2024/01/23 09:00:12;;;;;;;5.40;3.00;;;;;;;10.02;83.85;101720.09;107999;1288;21996;-60
2024/01/23 09:02:39;;;;;;;7.50;3.50;;;;;;;9.97;82.71;101719.50;108166;1283;21987;-61
2024/01/23 09:05:05;;;;;;;9.50;4.20;;;;;;;9.94;82.09;101720.17;108125;1286;21995;-62
2024/01/23 09:07:30;;;;;;;7.40;3.90;;;;;;;9.95;82.49;101717.39;107983;1288;21993;-61
2024/01/23 09:09:56;;;;;;;7.80;4.30;;;;;;;9.92;81.84;101716.48;108106;1283;22001;-62
2024/01/23 09:12:22;;;;;;;6.50;3.80;;;;;;;9.85;81.16;101712.17;108109;1279;22002;-60
2024/01/23 09:14:48;;;;;;;6.50;4.00;;;;;;;9.78;81.11;101710.16;108104;1277;22451;-61
2024/01/23 09:17:13;;;;;;;6.80;4.10;;;;;;;9.76;81.30;101705.41;108099;1278;21977;-63
2024/01/23 09:19:39;;;;;;;7.80;4.40;;;;;;;9.69;80.81;101701.81;108098;1288;21981;-59
2024/01/23 09:22:06;;;;;;;8.10;5.10;;;;;;;9.62;80.73;101699.61;108112;1288;21995;-62
2024/01/23 09:24:31;;;;;;;7.40;4.30;;;;;;;9.62;81.19;101695.59;108140;1288;21995;-60
2024/01/23 09:27:00;;;;;;;6.50;3.90;;;;;;;9.62;81.72;101692.09;108078;1277;22177;-61
2024/01/23 09:29:26;;;;;;;7.60;4.50;;;;;;;9.68;82.05;101687.61;108115;1288;22027;-61
2024/01/23 09:31:52;;;;;;;9.30;4.70;;;;;;;9.72;82.00;101679.41;108148;1277;23644;-63
2024/01/23 09:34:17;;;;;;;6.10;4.20;;;;;;;9.74;82.33;101676.64;108139;1288;21995;-61
2024/01/23 09:36:43;;;;;;;8.80;4.40;;;;;;;9.74;82.27;101671.38;108093;1288;22002;-60
2024/01/23 09:39:13;;;;;;;8.80;4.20;;;;;;;9.70;82.22;101666.42;108098;1288;21992;-59
2024/01/23 09:41:43;;;;;;;8.00;3.60;;;;;;;9.74;82.50;101668.39;108116;1288;21996;-61
2024/01/23 09:44:09;;;;;;;;;;;;;;;9.74;82.53;101664.02;108137;1288;22004;-61
2024/01/23 09:46:34;;;;;;;8.30;4.00;;;;;;;9.71;82.40;101656.09;107914;1288;21987;-60
2024/01/23 09:49:00;;;;;;;6.40;3.40;;;;;;;9.78;82.68;101653.02;107894;1288;21990;-61
2024/01/23 09:51:26;;;;;;;8.70;3.80;;;;;;;9.81;82.13;101655.68;108110;1288;22001;-60
2024/01/23 09:53:51;;;;;;;11.40;3.60;;;;;;;9.83;81.63;101654.11;108109;1288;22033;-59
2024/01/23 09:56:17;;;;;;;5.70;3.10;;;;;;;9.82;80.86;101652.70;108120;1288;21986;-63
2024/01/23 09:58:43;;;;;;;8.00;3.30;;;;;;;9.80;79.20;101651.11;107904;1287;23049;-63
2024/01/23 10:01:09;;;;;;;6.60;3.40;;;;;;;9.82;79.53;101649.73;107963;1288;21993;-60
2024/01/23 10:03:34;;;;;;;5.00;2.70;;;;;;;9.87;79.94;101651.38;107246;1277;1002455;-59
2024/01/23 10:06:01;;;;;;;5.00;2.80;;;;;;;9.89;79.05;101653.14;107925;1288;21992;-62
2024/01/23 10:08:26;;;;;;;4.70;2.50;;;;;;;9.95;78.86;101654.60;108101;1279;21992;-62
2024/01/23 10:11:01;;;;;;;6.10;3.00;;;;;;;10.00;77.95;101651.67;108114;1288;21986;-61
2024/01/23 10:13:28;;;;;;;5.80;2.90;;;;;;;10.11;77.68;101641.96;108080;1287;21978;-61
2024/01/23 10:15:57;;;;;;;6.90;3.30;;;;;;;10.16;76.10;101641.30;108135;1286;22006;-61
2024/01/23 10:18:24;;;;;;;6.40;2.50;;;;;;;10.25;76.78;101641.56;108155;1288;22005;-59
2024/01/23 10:20:50;;;;;;;5.50;2.80;;;;;;;10.26;76.14;101642.98;108078;1288;21991;-61
2024/01/23 10:23:16;;;;;;;5.10;3.10;;;;;;;10.22;74.98;101638.73;108094;1288;22417;-63
2024/01/23 10:25:42;;;;;;;5.90;3.30;;;;;;;10.21;75.59;101636.98;108105;1288;22001;-62
2024/01/23 10:28:13;;;;;;;7.90;4.00;;;;;;;10.21;76.17;101639.27;108080;1288;21995;-60
2024/01/23 10:30:40;;;;;;;7.40;3.40;;;;;;;10.14;74.63;101636.39;108096;1278;21994;-60
2024/01/23 10:33:06;;;;;;;5.70;3.50;;;;;;;10.17;75.79;101638.69;108060;1288;21965;-60
2024/01/23 10:35:35;;;;;;;5.80;3.20;;;;;;;10.13;74.34;101636.71;108130;1288;22052;-60
2024/01/23 10:38:05;;;;;;;6.20;3.10;;;;;;;10.17;74.35;101638.33;108110;1288;22069;-60
2024/01/23 10:40:31;;;;;;;5.00;3.30;;;;;;;10.17;74.29;101635.17;108248;1284;22043;-60
2024/01/23 10:42:57;;;;;;;5.00;3.40;;;;;;;10.20;74.31;101637.84;108135;1286;21992;-59
2024/01/23 10:45:23;;;;;;;7.90;3.40;;;;;;;10.21;73.66;101631.54;108088;1286;22001;-62
2024/01/23 10:47:51;;;;;;;7.90;3.00;;;;;;;10.23;72.89;101623.83;108172;1286;21990;-62
2024/01/23 10:50:17;;;;;;;8.90;3.60;;;;;;;10.28;73.30;101623.36;108140;1284;21987;-58
2024/01/23 10:52:45;;;;;;;6.10;3.90;;;;;;;10.35;73.72;101620.45;108155;1286;21988;-59
2024/01/23 10:55:11;;;;;;;5.70;3.50;;;;;;;10.45;74.21;101618.61;108119;1286;22757;-61
2024/01/23 10:57:37;;;;;;;5.60;3.70;;;;;;;10.54;74.40;101612.55;107843;1286;22465;-62
2024/01/23 11:00:09;;;;;;;6.40;3.40;;;;;;;10.58;73.20;101604.32;107390;1286;1002390;-61
2024/01/23 11:02:39;;;;;;;5.70;3.50;;;;;;;10.58;70.50;101603.09;108206;1286;23203;-59
2024/01/23 11:05:05;;;;;;;6.00;3.00;;;;;;;10.67;71.79;101596.83;108127;1286;23770;-62
2024/01/23 11:07:42;;;;;;;4.20;2.90;;;;;;;10.83;72.55;101592.55;108189;1286;22514;-62
2024/01/23 11:10:26;;;;;;;5.90;2.70;;;;;;;10.99;70.49;101587.73;108189;1286;21989;-64
2024/01/23 11:13:10;;;;;;;4.60;2.80;;;;;;;11.08;68.65;101583.73;108201;1286;23724;-62